AQQ10 IFIS: Internet Flight Information System
logo dgac
Lunes 20 de Septiembre del 2021
Buscar por aerodromo o helipuerto
Ingrese nombre de aeródromo, localidad o designador OACI:
METAR del 20-09-2021 a las 11:00 UTC
Para mayor información visite www.meteochile.cl
METAR SCQP 201100Z 18004KT 130V210 CAVOK 04/04 Q1027
Viento: dirección 180 grados, velocidad 4 nudos
Viento con dirección variable entre 130 y 210 grados
Visibilidad: 10 km o más,
    sin nubes bajo los 5.000 pies o bajo del MSA (Mínimo de Seguridad del Aeródromo),
    sin cumulonimbus, y sin fenómenos de tiempo significativo en el aeródromo o alrededores
Temperatura: 4 °C
Rocío: 4 °C
Humedad_relativa: 100%
Presión: 1027 hPa
METAR del 20-09-2021 a las 10:00 UTC
Para mayor información visite www.meteochile.cl
METAR SCQP 201000Z AUTO 17007KT CAVOK 03/03 Q1026
Viento: dirección 170 grados, velocidad 7 nudos
Visibilidad: 10 km o más,
    sin nubes bajo los 5.000 pies o bajo del MSA (Mínimo de Seguridad del Aeródromo),
    sin cumulonimbus, y sin fenómenos de tiempo significativo en el aeródromo o alrededores
Temperatura: 3 °C
Rocío: 3 °C
Humedad_relativa: 100%
Presión: 1026 hPa
METAR del 20-09-2021 a las 09:00 UTC
Para mayor información visite www.meteochile.cl
METAR SCQP 200900Z AUTO 17004KT 9999 2300 R01/0800VP2000U FG FEW003 00/00 Q1026
Viento: dirección 170 grados, velocidad 4 nudos
Visibilidad: 10 km o más
Visibilidad: 2300 metros
Alcance_pista: Pista 01: Alcance visual desde la zona de contacto variable de 0800 a 2000 metros, y aumentando
Niebla
Nubes: Escasa nubosidad a 300 pies sobre el nivel del aeródromo
Temperatura: 0 °C
Rocío: 0 °C
Humedad_relativa: 100%
Presión: 1026 hPa
METAR del 20-09-2021 a las 08:00 UTC
Para mayor información visite www.meteochile.cl
METAR SCQP 200800Z AUTO VRB02KT 9999 SCT002 00/00 Q1026
Viento: dirección variable, velocidad 2 nudos
Visibilidad: 10 km o más
Nubes: Nubosidad parcial a 200 pies sobre el nivel del aeródromo
Temperatura: 0 °C
Rocío: 0 °C
Humedad_relativa: 100%
Presión: 1026 hPa
METAR del 20-09-2021 a las 07:00 UTC
Para mayor información visite www.meteochile.cl
METAR SCQP 200700Z AUTO 09002KT 4100 0400 R01/0375V0600D FG VV001 00/00 Q1027
Viento: dirección 090 grados, velocidad 2 nudos
Visibilidad: 4100 metros
Visibilidad: 400 metros
Alcance_pista: Pista 01: Alcance visual desde la zona de contacto variable de 0375 a 0600 metros, y disminuyendo
Niebla
Visib_vertical: Cielo oscurecido, : 100 pies de visibilidad vertical
Temperatura: 0 °C
Rocío: 0 °C
Humedad_relativa: 100%
Presión: 1027 hPa
METAR del 20-09-2021 a las 06:00 UTC
Para mayor información visite www.meteochile.cl
METAR SCQP 200600Z AUTO VRB02KT 7000 R01/1300VP2000N BCFG FEW003 01/01 Q1027
Viento: dirección variable, velocidad 2 nudos
Visibilidad: 7000 metros
Alcance_pista: Pista 01: Alcance visual desde la zona de contacto variable de 1300 a 2000 metros
Bancos de Niebla
Nubes: Escasa nubosidad a 300 pies sobre el nivel del aeródromo
Temperatura: 1 °C
Rocío: 1 °C
Humedad_relativa: 100%
Presión: 1027 hPa
METAR del 20-09-2021 a las 05:00 UTC
Para mayor información visite www.meteochile.cl
METAR SCQP 200500Z AUTO 00000KT 8000 1400 R01/0800V1900U FG FEW003 02/02 Q1027
Visibilidad: 8000 metros
Visibilidad: 1400 metros
Alcance_pista: Pista 01: Alcance visual desde la zona de contacto variable de 0800 a 1900 metros, y aumentando
Niebla
Nubes: Escasa nubosidad a 300 pies sobre el nivel del aeródromo
Temperatura: 2 °C
Rocío: 2 °C
Humedad_relativa: 100%
Presión: 1027 hPa
METAR del 20-09-2021 a las 04:00 UTC
Para mayor información visite www.meteochile.cl
METAR SCQP 200400Z AUTO 01003KT 4000 NCD 03/03 Q1027
Viento: dirección 010 grados, velocidad 3 nudos
Visibilidad: 4000 metros
Temperatura: 3 °C
Rocío: 3 °C
Humedad_relativa: 100%
Presión: 1027 hPa
METAR del 20-09-2021 a las 03:00 UTC
Para mayor información visite www.meteochile.cl
METAR SCQP 200300Z AUTO 01003KT CAVOK 04/04 Q1027
Viento: dirección 010 grados, velocidad 3 nudos
Visibilidad: 10 km o más,
    sin nubes bajo los 5.000 pies o bajo del MSA (Mínimo de Seguridad del Aeródromo),
    sin cumulonimbus, y sin fenómenos de tiempo significativo en el aeródromo o alrededores
Temperatura: 4 °C
Rocío: 4 °C
Humedad_relativa: 100%
Presión: 1027 hPa
METAR del 20-09-2021 a las 02:00 UTC
Para mayor información visite www.meteochile.cl
METAR SCQP 200200Z AUTO VRB01KT CAVOK 06/05 Q1027
Viento: dirección variable, velocidad 1 nudos
Visibilidad: 10 km o más,
    sin nubes bajo los 5.000 pies o bajo del MSA (Mínimo de Seguridad del Aeródromo),
    sin cumulonimbus, y sin fenómenos de tiempo significativo en el aeródromo o alrededores
Temperatura: 6 °C
Rocío: 5 °C
Humedad_relativa: 93%
Presión: 1027 hPa